Bequimao, Brazil
Current Conditions -  °F | °C
As of 11:00 AM on Wednesday 26 Nov 2014 (Local Time) from SBSL Reporting Station
Scattered Clouds Scattered Clouds  
Wind Chill: 88°   Ceiling: Unl
Heat Index: 93°   Visibility: 6mi
Dew Point: 70°   Wind: 20mph
Humidity: 55%   Direction: 60°ENE
Pressure: 29.85"   Gusts: NA
Location:  2.45°S, 44.78°W
Report Text: SBSL 261400Z 06017KT 030V090 9999 SCT017 FEW020TCU 31/21 Q1011
Loading
Personal Weather Stations






























Interactive Weather Map New forecast layout! Learn more

10-Day Weather Forecast

Advertisements
Track Severe Weather on mobile